sensor_id;sensor_type;location;lat;lon;timestamp;P1;durP1;ratioP1;P2;durP2;ratioP2
11414;SDS011;5763;42.714;23.244;2023-08-01T00:00:11;3.28;;;1.70;;
11414;SDS011;5763;42.714;23.244;2023-08-01T00:02:38;2.95;;;1.75;;
11414;SDS011;5763;42.714;23.244;2023-08-01T00:05:07;1.98;;;1.58;;
11414;SDS011;5763;42.714;23.244;2023-08-01T00:07:36;1.65;;;1.55;;
11414;SDS011;5763;42.714;23.244;2023-08-01T00:10:03;1.85;;;1.67;;
11414;SDS011;5763;42.714;23.244;2023-08-01T00:12:30;3.25;;;1.48;;
11414;SDS011;5763;42.714;23.244;2023-08-01T00:14:57;2.30;;;1.50;;
11414;SDS011;5763;42.714;23.244;2023-08-01T00:17:24;2.78;;;1.88;;
11414;SDS011;5763;42.714;23.244;2023-08-01T00:19:50;1.63;;;1.40;;
11414;SDS011;5763;42.714;23.244;2023-08-01T00:22:17;2.33;;;1.63;;
11414;SDS011;5763;42.714;23.244;2023-08-01T00:24:45;2.00;;;1.60;;
11414;SDS011;5763;42.714;23.244;2023-08-01T00:27:13;2.25;;;2.05;;
11414;SDS011;5763;42.714;23.244;2023-08-01T00:29:39;1.95;;;1.77;;
11414;SDS011;5763;42.714;23.244;2023-08-01T00:32:06;1.88;;;1.70;;
11414;SDS011;5763;42.714;23.244;2023-08-01T00:34:33;3.35;;;1.80;;
11414;SDS011;5763;42.714;23.244;2023-08-01T00:37:00;1.90;;;1.70;;
11414;SDS011;5763;42.714;23.244;2023-08-01T00:39:27;2.58;;;1.83;;
11414;SDS011;5763;42.714;23.244;2023-08-01T00:41:55;5.20;;;2.00;;
11414;SDS011;5763;42.714;23.244;2023-08-01T00:44:22;1.73;;;1.33;;
11414;SDS011;5763;42.714;23.244;2023-08-01T00:46:49;2.47;;;1.83;;
11414;SDS011;5763;42.714;23.244;2023-08-01T00:49:16;1.90;;;1.80;;
11414;SDS011;5763;42.714;23.244;2023-08-01T00:51:43;2.50;;;1.80;;
11414;SDS011;5763;42.714;23.244;2023-08-01T00:54:10;2.83;;;1.80;;
11414;SDS011;5763;42.714;23.244;2023-08-01T00:56:37;2.47;;;1.92;;
11414;SDS011;5763;42.714;23.244;2023-08-01T00:59:05;3.72;;;1.63;;
11414;SDS011;5763;42.714;23.244;2023-08-01T01:01:32;2.47;;;1.95;;
11414;SDS011;5763;42.714;23.244;2023-08-01T01:03:58;3.35;;;1.77;;
11414;SDS011;5763;42.714;23.244;2023-08-01T01:06:28;3.42;;;1.88;;
11414;SDS011;5763;42.714;23.244;2023-08-01T01:08:58;1.92;;;1.70;;
11414;SDS011;5763;42.714;23.244;2023-08-01T01:11:25;1.63;;;1.50;;
11414;SDS011;5763;42.714;23.244;2023-08-01T01:13:51;3.03;;;2.00;;
11414;SDS011;5763;42.714;23.244;2023-08-01T01:16:20;3.28;;;1.67;;
11414;SDS011;5763;42.714;23.244;2023-08-01T01:18:47;3.05;;;1.83;;
11414;SDS011;5763;42.714;23.244;2023-08-01T01:21:15;2.10;;;1.80;;
11414;SDS011;5763;42.714;23.244;2023-08-01T01:23:42;1.90;;;1.73;;
11414;SDS011;5763;42.714;23.244;2023-08-01T01:26:09;1.88;;;1.70;;
11414;SDS011;5763;42.714;23.244;2023-08-01T01:28:36;1.92;;;1.65;;
11414;SDS011;5763;42.714;23.244;2023-08-01T01:31:03;1.80;;;1.70;;
11414;SDS011;5763;42.714;23.244;2023-08-01T01:33:30;1.73;;;1.63;;
11414;SDS011;5763;42.714;23.244;2023-08-01T01:35:59;1.67;;;1.58;;
11414;SDS011;5763;42.714;23.244;2023-08-01T01:38:28;2.08;;;1.88;;
11414;SDS011;5763;42.714;23.244;2023-08-01T01:40:54;4.68;;;1.83;;
11414;SDS011;5763;42.714;23.244;2023-08-01T01:43:21;2.92;;;1.80;;
11414;SDS011;5763;42.714;23.244;2023-08-01T01:45:48;2.55;;;2.28;;
11414;SDS011;5763;42.714;23.244;2023-08-01T01:48:15;2.20;;;2.00;;
11414;SDS011;5763;42.714;23.244;2023-08-01T01:50:41;4.97;;;1.77;;
11414;SDS011;5763;42.714;23.244;2023-08-01T01:53:08;2.60;;;1.90;;
11414;SDS011;5763;42.714;23.244;2023-08-01T01:55:36;2.42;;;1.70;;
11414;SDS011;5763;42.714;23.244;2023-08-01T01:58:03;2.22;;;1.80;;
11414;SDS011;5763;42.714;23.244;2023-08-01T02:00:31;2.53;;;1.75;;
11414;SDS011;5763;42.714;23.244;2023-08-01T02:02:57;1.70;;;1.52;;
11414;SDS011;5763;42.714;23.244;2023-08-01T02:05:25;2.20;;;1.67;;
11414;SDS011;5763;42.714;23.244;2023-08-01T02:07:52;2.17;;;1.92;;
11414;SDS011;5763;42.714;23.244;2023-08-01T02:10:18;1.95;;;1.70;;
11414;SDS011;5763;42.714;23.244;2023-08-01T02:12:47;2.70;;;1.85;;
11414;SDS011;5763;42.714;23.244;2023-08-01T02:15:13;1.90;;;1.70;;
11414;SDS011;5763;42.714;23.244;2023-08-01T02:17:40;2.33;;;1.77;;
11414;SDS011;5763;42.714;23.244;2023-08-01T02:20:07;2.00;;;1.77;;
11414;SDS011;5763;42.714;23.244;2023-08-01T02:22:34;2.42;;;1.90;;
11414;SDS011;5763;42.714;23.244;2023-08-01T02:25:01;2.10;;;1.75;;
11414;SDS011;5763;42.714;23.244;2023-08-01T02:27:28;2.00;;;1.80;;
11414;SDS011;5763;42.714;23.244;2023-08-01T02:29:56;1.70;;;1.60;;
11414;SDS011;5763;42.714;23.244;2023-08-01T02:32:23;1.75;;;1.50;;
11414;SDS011;5763;42.714;23.244;2023-08-01T02:34:49;3.03;;;1.80;;
11414;SDS011;5763;42.714;23.244;2023-08-01T02:37:16;3.45;;;1.65;;
11414;SDS011;5763;42.714;23.244;2023-08-01T02:39:43;2.63;;;2.10;;
11414;SDS011;5763;42.714;23.244;2023-08-01T02:42:10;2.40;;;2.15;;
11414;SDS011;5763;42.714;23.244;2023-08-01T02:44:37;3.53;;;1.92;;
11414;SDS011;5763;42.714;23.244;2023-08-01T02:47:05;1.85;;;1.73;;
11414;SDS011;5763;42.714;23.244;2023-08-01T02:49:32;2.22;;;1.60;;
11414;SDS011;5763;42.714;23.244;2023-08-01T02:51:59;2.53;;;1.85;;
11414;SDS011;5763;42.714;23.244;2023-08-01T02:54:25;2.58;;;2.00;;
11414;SDS011;5763;42.714;23.244;2023-08-01T02:56:52;2.75;;;1.70;;
11414;SDS011;5763;42.714;23.244;2023-08-01T02:59:19;2.25;;;1.95;;
11414;SDS011;5763;42.714;23.244;2023-08-01T03:01:45;3.17;;;2.30;;
11414;SDS011;5763;42.714;23.244;2023-08-01T03:04:13;2.45;;;2.25;;
11414;SDS011;5763;42.714;23.244;2023-08-01T03:06:40;2.70;;;2.03;;
11414;SDS011;5763;42.714;23.244;2023-08-01T03:09:07;2.55;;;2.05;;
11414;SDS011;5763;42.714;23.244;2023-08-01T03:11:35;4.22;;;2.35;;
11414;SDS011;5763;42.714;23.244;2023-08-01T03:14:02;5.72;;;1.95;;
11414;SDS011;5763;42.714;23.244;2023-08-01T03:16:30;3.88;;;2.15;;
11414;SDS011;5763;42.714;23.244;2023-08-01T03:18:57;3.40;;;2.10;;
11414;SDS011;5763;42.714;23.244;2023-08-01T03:21:30;3.00;;;2.00;;
11414;SDS011;5763;42.714;23.244;2023-08-01T03:23:57;2.47;;;2.03;;
11414;SDS011;5763;42.714;23.244;2023-08-01T03:26:24;3.97;;;1.73;;
11414;SDS011;5763;42.714;23.244;2023-08-01T03:28:53;3.22;;;2.17;;
11414;SDS011;5763;42.714;23.244;2023-08-01T03:31:20;2.05;;;1.75;;
11414;SDS011;5763;42.714;23.244;2023-08-01T03:33:47;3.85;;;2.20;;
11414;SDS011;5763;42.714;23.244;2023-08-01T03:36:14;2.08;;;1.75;;
11414;SDS011;5763;42.714;23.244;2023-08-01T03:38:42;2.70;;;1.98;;
11414;SDS011;5763;42.714;23.244;2023-08-01T03:41:10;1.77;;;1.67;;
11414;SDS011;5763;42.714;23.244;2023-08-01T03:43:37;6.95;;;2.25;;
11414;SDS011;5763;42.714;23.244;2023-08-01T03:46:03;2.47;;;1.90;;
11414;SDS011;5763;42.714;23.244;2023-08-01T03:48:30;2.80;;;2.13;;
11414;SDS011;5763;42.714;23.244;2023-08-01T03:50:57;3.22;;;2.08;;
11414;SDS011;5763;42.714;23.244;2023-08-01T03:53:24;4.68;;;2.08;;
11414;SDS011;5763;42.714;23.244;2023-08-01T03:55:52;1.98;;;1.75;;
11414;SDS011;5763;42.714;23.244;2023-08-01T03:58:18;2.92;;;2.10;;
11414;SDS011;5763;42.714;23.244;2023-08-01T04:00:45;3.15;;;2.00;;
11414;SDS011;5763;42.714;23.244;2023-08-01T04:03:12;2.40;;;2.20;;
11414;SDS011;5763;42.714;23.244;2023-08-01T04:05:39;4.63;;;2.10;;
11414;SDS011;5763;42.714;23.244;2023-08-01T04:08:05;2.65;;;2.20;;
11414;SDS011;5763;42.714;23.244;2023-08-01T04:10:33;3.20;;;2.50;;
11414;SDS011;5763;42.714;23.244;2023-08-01T04:13:01;3.90;;;2.47;;
11414;SDS011;5763;42.714;23.244;2023-08-01T04:15:28;2.92;;;2.22;;
11414;SDS011;5763;42.714;23.244;2023-08-01T04:17:55;2.50;;;2.20;;
11414;SDS011;5763;42.714;23.244;2023-08-01T04:20:22;2.83;;;2.47;;
11414;SDS011;5763;42.714;23.244;2023-08-01T04:22:48;4.15;;;2.40;;
11414;SDS011;5763;42.714;23.244;2023-08-01T04:25:15;4.18;;;2.83;;
11414;SDS011;5763;42.714;23.244;2023-08-01T04:27:42;3.30;;;2.40;;
11414;SDS011;5763;42.714;23.244;2023-08-01T04:30:11;2.63;;;2.40;;
11414;SDS011;5763;42.714;23.244;2023-08-01T04:32:37;3.63;;;2.38;;
11414;SDS011;5763;42.714;23.244;2023-08-01T04:35:05;2.90;;;2.20;;
11414;SDS011;5763;42.714;23.244;2023-08-01T04:37:32;3.25;;;2.45;;
11414;SDS011;5763;42.714;23.244;2023-08-01T04:39:59;2.92;;;2.50;;
11414;SDS011;5763;42.714;23.244;2023-08-01T04:42:25;4.15;;;2.47;;
11414;SDS011;5763;42.714;23.244;2023-08-01T04:44:52;2.58;;;2.38;;
11414;SDS011;5763;42.714;23.244;2023-08-01T04:47:20;3.60;;;2.55;;
11414;SDS011;5763;42.714;23.244;2023-08-01T04:49:47;2.67;;;2.30;;
11414;SDS011;5763;42.714;23.244;2023-08-01T04:52:14;4.22;;;2.33;;
11414;SDS011;5763;42.714;23.244;2023-08-01T04:54:40;3.03;;;2.55;;
11414;SDS011;5763;42.714;23.244;2023-08-01T04:57:07;2.40;;;2.20;;
11414;SDS011;5763;42.714;23.244;2023-08-01T04:59:34;2.90;;;2.60;;
11414;SDS011;5763;42.714;23.244;2023-08-01T05:02:01;2.50;;;2.30;;
11414;SDS011;5763;42.714;23.244;2023-08-01T05:04:29;3.15;;;2.58;;
11414;SDS011;5763;42.714;23.244;2023-08-01T05:06:55;4.05;;;2.05;;
11414;SDS011;5763;42.714;23.244;2023-08-01T05:09:22;3.90;;;2.17;;
11414;SDS011;5763;42.714;23.244;2023-08-01T05:11:49;2.83;;;2.00;;
11414;SDS011;5763;42.714;23.244;2023-08-01T05:14:15;3.70;;;2.13;;
11414;SDS011;5763;42.714;23.244;2023-08-01T05:16:42;2.97;;;2.20;;
11414;SDS011;5763;42.714;23.244;2023-08-01T05:19:09;5.72;;;2.60;;
11414;SDS011;5763;42.714;23.244;2023-08-01T05:21:38;3.25;;;2.10;;
11414;SDS011;5763;42.714;23.244;2023-08-01T05:24:05;2.95;;;2.00;;
11414;SDS011;5763;42.714;23.244;2023-08-01T05:26:32;2.42;;;2.22;;
11414;SDS011;5763;42.714;23.244;2023-08-01T05:28:58;3.35;;;2.05;;
11414;SDS011;5763;42.714;23.244;2023-08-01T05:31:25;4.38;;;2.40;;
11414;SDS011;5763;42.714;23.244;2023-08-01T05:33:52;4.78;;;2.28;;
11414;SDS011;5763;42.714;23.244;2023-08-01T05:36:18;3.72;;;2.35;;
11414;SDS011;5763;42.714;23.244;2023-08-01T05:38:47;4.72;;;2.20;;
11414;SDS011;5763;42.714;23.244;2023-08-01T05:41:13;4.03;;;2.25;;
11414;SDS011;5763;42.714;23.244;2023-08-01T05:43:40;4.03;;;2.30;;
11414;SDS011;5763;42.714;23.244;2023-08-01T05:46:07;3.40;;;2.70;;
11414;SDS011;5763;42.714;23.244;2023-08-01T05:48:34;3.22;;;2.40;;
11414;SDS011;5763;42.714;23.244;2023-08-01T05:51:00;3.60;;;3.30;;
11414;SDS011;5763;42.714;23.244;2023-08-01T05:53:27;3.50;;;2.67;;
11414;SDS011;5763;42.714;23.244;2023-08-01T05:55:56;6.03;;;3.53;;
11414;SDS011;5763;42.714;23.244;2023-08-01T05:58:23;3.72;;;2.92;;
11414;SDS011;5763;42.714;23.244;2023-08-01T06:00:50;6.40;;;2.63;;
11414;SDS011;5763;42.714;23.244;2023-08-01T06:03:17;4.60;;;2.33;;
11414;SDS011;5763;42.714;23.244;2023-08-01T06:05:44;2.78;;;2.03;;
11414;SDS011;5763;42.714;23.244;2023-08-01T06:08:10;3.58;;;2.00;;
11414;SDS011;5763;42.714;23.244;2023-08-01T06:10:38;4.35;;;2.00;;
11414;SDS011;5763;42.714;23.244;2023-08-01T06:13:06;3.20;;;1.95;;
11414;SDS011;5763;42.714;23.244;2023-08-01T06:15:33;2.88;;;2.42;;
11414;SDS011;5763;42.714;23.244;2023-08-01T06:18:00;5.47;;;2.20;;
11414;SDS011;5763;42.714;23.244;2023-08-01T06:20:28;2.50;;;2.13;;
11414;SDS011;5763;42.714;23.244;2023-08-01T06:22:54;3.42;;;2.10;;
11414;SDS011;5763;42.714;23.244;2023-08-01T06:25:21;3.33;;;2.45;;
11414;SDS011;5763;42.714;23.244;2023-08-01T06:27:48;3.65;;;2.10;;
11414;SDS011;5763;42.714;23.244;2023-08-01T06:30:17;3.58;;;2.38;;
11414;SDS011;5763;42.714;23.244;2023-08-01T06:32:43;4.75;;;3.20;;
11414;SDS011;5763;42.714;23.244;2023-08-01T06:35:10;3.00;;;2.45;;
11414;SDS011;5763;42.714;23.244;2023-08-01T06:37:37;5.28;;;2.65;;
11414;SDS011;5763;42.714;23.244;2023-08-01T06:40:04;3.55;;;1.90;;
11414;SDS011;5763;42.714;23.244;2023-08-01T06:42:33;3.65;;;2.90;;
11414;SDS011;5763;42.714;23.244;2023-08-01T06:44:59;4.05;;;3.65;;
11414;SDS011;5763;42.714;23.244;2023-08-01T06:47:27;4.82;;;2.50;;
11414;SDS011;5763;42.714;23.244;2023-08-01T06:49:54;4.00;;;2.53;;
11414;SDS011;5763;42.714;23.244;2023-08-01T06:52:21;3.33;;;2.70;;
11414;SDS011;5763;42.714;23.244;2023-08-01T06:54:48;5.55;;;2.70;;
11414;SDS011;5763;42.714;23.244;2023-08-01T06:57:14;3.08;;;2.20;;
11414;SDS011;5763;42.714;23.244;2023-08-01T06:59:41;3.78;;;2.47;;
11414;SDS011;5763;42.714;23.244;2023-08-01T07:02:08;3.25;;;2.17;;
11414;SDS011;5763;42.714;23.244;2023-08-01T07:04:37;3.17;;;2.70;;
11414;SDS011;5763;42.714;23.244;2023-08-01T07:07:04;2.72;;;2.13;;
11414;SDS011;5763;42.714;23.244;2023-08-01T07:09:30;3.10;;;1.80;;
11414;SDS011;5763;42.714;23.244;2023-08-01T07:11:57;3.70;;;2.78;;
11414;SDS011;5763;42.714;23.244;2023-08-01T07:14:24;4.60;;;3.08;;
11414;SDS011;5763;42.714;23.244;2023-08-01T07:16:50;4.90;;;2.42;;
11414;SDS011;5763;42.714;23.244;2023-08-01T07:19:17;4.85;;;2.17;;
11414;SDS011;5763;42.714;23.244;2023-08-01T07:21:45;3.80;;;3.40;;
11414;SDS011;5763;42.714;23.244;2023-08-01T07:24:13;2.40;;;2.20;;
11414;SDS011;5763;42.714;23.244;2023-08-01T07:26:40;4.20;;;2.95;;
11414;SDS011;5763;42.714;23.244;2023-08-01T07:29:07;5.03;;;2.33;;
11414;SDS011;5763;42.714;23.244;2023-08-01T07:31:35;5.78;;;2.45;;
11414;SDS011;5763;42.714;23.244;2023-08-01T07:34:02;6.53;;;4.50;;
11414;SDS011;5763;42.714;23.244;2023-08-01T07:36:29;2.97;;;2.35;;
11414;SDS011;5763;42.714;23.244;2023-08-01T07:38:57;4.55;;;3.47;;
11414;SDS011;5763;42.714;23.244;2023-08-01T07:41:24;6.82;;;3.72;;
11414;SDS011;5763;42.714;23.244;2023-08-01T07:43:50;4.43;;;2.38;;
11414;SDS011;5763;42.714;23.244;2023-08-01T07:46:17;3.45;;;2.10;;
11414;SDS011;5763;42.714;23.244;2023-08-01T07:48:44;2.90;;;2.35;;
11414;SDS011;5763;42.714;23.244;2023-08-01T07:51:11;4.55;;;2.55;;
11414;SDS011;5763;42.714;23.244;2023-08-01T07:53:37;4.82;;;3.05;;
11414;SDS011;5763;42.714;23.244;2023-08-01T07:56:06;6.22;;;2.70;;
11414;SDS011;5763;42.714;23.244;2023-08-01T07:58:33;5.13;;;2.20;;
11414;SDS011;5763;42.714;23.244;2023-08-01T08:01:02;4.10;;;2.70;;
11414;SDS011;5763;42.714;23.244;2023-08-01T08:03:30;4.03;;;2.35;;
11414;SDS011;5763;42.714;23.244;2023-08-01T08:05:56;3.60;;;2.53;;
11414;SDS011;5763;42.714;23.244;2023-08-01T08:08:24;5.55;;;2.60;;
11414;SDS011;5763;42.714;23.244;2023-08-01T08:10:51;5.53;;;2.20;;
11414;SDS011;5763;42.714;23.244;2023-08-01T08:13:20;2.67;;;2.13;;
11414;SDS011;5763;42.714;23.244;2023-08-01T08:15:47;2.85;;;2.40;;
11414;SDS011;5763;42.714;23.244;2023-08-01T08:18:14;2.50;;;2.30;;
11414;SDS011;5763;42.714;23.244;2023-08-01T08:20:41;5.38;;;2.95;;
11414;SDS011;5763;42.714;23.244;2023-08-01T08:23:09;3.42;;;2.28;;
11414;SDS011;5763;42.714;23.244;2023-08-01T08:25:36;3.67;;;2.50;;
11414;SDS011;5763;42.714;23.244;2023-08-01T08:28:03;2.65;;;2.38;;
11414;SDS011;5763;42.714;23.244;2023-08-01T08:30:31;2.45;;;2.25;;
11414;SDS011;5763;42.714;23.244;2023-08-01T08:32:58;3.08;;;2.20;;
11414;SDS011;5763;42.714;23.244;2023-08-01T08:35:29;3.40;;;2.67;;
11414;SDS011;5763;42.714;23.244;2023-08-01T08:37:57;3.63;;;2.50;;
11414;SDS011;5763;42.714;23.244;2023-08-01T08:40:24;3.78;;;2.63;;
11414;SDS011;5763;42.714;23.244;2023-08-01T08:42:52;3.85;;;2.80;;
11414;SDS011;5763;42.714;23.244;2023-08-01T08:45:19;5.05;;;2.92;;
11414;SDS011;5763;42.714;23.244;2023-08-01T08:47:50;3.10;;;2.67;;
11414;SDS011;5763;42.714;23.244;2023-08-01T08:50:22;4.38;;;2.70;;
11414;SDS011;5763;42.714;23.244;2023-08-01T08:52:50;2.85;;;2.50;;
11414;SDS011;5763;42.714;23.244;2023-08-01T08:55:17;3.00;;;2.70;;
11414;SDS011;5763;42.714;23.244;2023-08-01T08:57:47;3.13;;;2.83;;
11414;SDS011;5763;42.714;23.244;2023-08-01T09:00:16;5.28;;;2.47;;
11414;SDS011;5763;42.714;23.244;2023-08-01T09:02:44;4.32;;;2.72;;
11414;SDS011;5763;42.714;23.244;2023-08-01T09:05:12;4.57;;;2.70;;
11414;SDS011;5763;42.714;23.244;2023-08-01T09:07:39;3.95;;;2.85;;
11414;SDS011;5763;42.714;23.244;2023-08-01T09:10:09;4.70;;;2.88;;
11414;SDS011;5763;42.714;23.244;2023-08-01T09:12:36;5.13;;;2.78;;
11414;SDS011;5763;42.714;23.244;2023-08-01T09:15:03;5.35;;;2.72;;
11414;SDS011;5763;42.714;23.244;2023-08-01T09:17:30;4.25;;;2.90;;
11414;SDS011;5763;42.714;23.244;2023-08-01T09:20:03;3.20;;;2.83;;
11414;SDS011;5763;42.714;23.244;2023-08-01T09:22:41;5.03;;;3.20;;
11414;SDS011;5763;42.714;23.244;2023-08-01T09:25:09;4.13;;;3.03;;
11414;SDS011;5763;42.714;23.244;2023-08-01T09:27:36;3.10;;;2.70;;
11414;SDS011;5763;42.714;23.244;2023-08-01T09:30:07;4.20;;;3.22;;
11414;SDS011;5763;42.714;23.244;2023-08-01T09:32:36;6.90;;;3.00;;
11414;SDS011;5763;42.714;23.244;2023-08-01T09:35:04;3.30;;;2.83;;
11414;SDS011;5763;42.714;23.244;2023-08-01T09:37:38;3.47;;;2.90;;
11414;SDS011;5763;42.714;23.244;2023-08-01T09:40:08;4.53;;;3.85;;
11414;SDS011;5763;42.714;23.244;2023-08-01T09:42:39;4.30;;;2.97;;
11414;SDS011;5763;42.714;23.244;2023-08-01T09:45:11;5.88;;;3.30;;
11414;SDS011;5763;42.714;23.244;2023-08-01T09:47:39;5.88;;;3.17;;
11414;SDS011;5763;42.714;23.244;2023-08-01T09:50:06;4.78;;;3.03;;
11414;SDS011;5763;42.714;23.244;2023-08-01T09:52:33;3.60;;;2.97;;
11414;SDS011;5763;42.714;23.244;2023-08-01T09:55:00;5.85;;;3.20;;
11414;SDS011;5763;42.714;23.244;2023-08-01T09:57:29;5.13;;;3.38;;
11414;SDS011;5763;42.714;23.244;2023-08-01T09:59:57;3.72;;;2.97;;
11414;SDS011;5763;42.714;23.244;2023-08-01T10:02:25;3.45;;;3.15;;
11414;SDS011;5763;42.714;23.244;2023-08-01T10:04:53;7.25;;;2.92;;
11414;SDS011;5763;42.714;23.244;2023-08-01T10:07:23;6.78;;;3.10;;
11414;SDS011;5763;42.714;23.244;2023-08-01T10:09:52;3.45;;;3.00;;
11414;SDS011;5763;42.714;23.244;2023-08-01T10:12:20;5.40;;;3.20;;
11414;SDS011;5763;42.714;23.244;2023-08-01T10:14:53;4.82;;;3.30;;
11414;SDS011;5763;42.714;23.244;2023-08-01T10:17:21;3.90;;;2.95;;
11414;SDS011;5763;42.714;23.244;2023-08-01T10:19:49;5.13;;;3.22;;
11414;SDS011;5763;42.714;23.244;2023-08-01T10:22:16;5.10;;;3.38;;
11414;SDS011;5763;42.714;23.244;2023-08-01T10:24:44;3.97;;;3.40;;
11414;SDS011;5763;42.714;23.244;2023-08-01T10:27:12;3.30;;;3.00;;
11414;SDS011;5763;42.714;23.244;2023-08-01T10:29:39;4.38;;;2.95;;
11414;SDS011;5763;42.714;23.244;2023-08-01T10:32:07;4.78;;;3.15;;
11414;SDS011;5763;42.714;23.244;2023-08-01T10:34:36;3.45;;;3.10;;
11414;SDS011;5763;42.714;23.244;2023-08-01T10:37:03;4.72;;;3.15;;
11414;SDS011;5763;42.714;23.244;2023-08-01T10:39:30;3.45;;;3.15;;
11414;SDS011;5763;42.714;23.244;2023-08-01T10:41:57;4.03;;;2.88;;
11414;SDS011;5763;42.714;23.244;2023-08-01T10:44:25;4.85;;;3.15;;
11414;SDS011;5763;42.714;23.244;2023-08-01T10:46:52;4.03;;;3.25;;
11414;SDS011;5763;42.714;23.244;2023-08-01T10:49:32;5.07;;;2.83;;
11414;SDS011;5763;42.714;23.244;2023-08-01T10:52:00;5.25;;;3.33;;
11414;SDS011;5763;42.714;23.244;2023-08-01T10:54:27;2.70;;;2.50;;
11414;SDS011;5763;42.714;23.244;2023-08-01T10:56:55;4.55;;;2.72;;
11414;SDS011;5763;42.714;23.244;2023-08-01T10:59:23;2.97;;;2.33;;
11414;SDS011;5763;42.714;23.244;2023-08-01T11:01:51;2.78;;;2.50;;
11414;SDS011;5763;42.714;23.244;2023-08-01T11:04:19;5.15;;;2.80;;
11414;SDS011;5763;42.714;23.244;2023-08-01T11:06:49;3.13;;;2.50;;
11414;SDS011;5763;42.714;23.244;2023-08-01T11:09:17;4.53;;;2.47;;
11414;SDS011;5763;42.714;23.244;2023-08-01T11:11:45;2.78;;;2.33;;
11414;SDS011;5763;42.714;23.244;2023-08-01T11:14:15;3.05;;;2.15;;
11414;SDS011;5763;42.714;23.244;2023-08-01T11:16:42;3.60;;;2.17;;
11414;SDS011;5763;42.714;23.244;2023-08-01T11:19:17;2.75;;;2.10;;
11414;SDS011;5763;42.714;23.244;2023-08-01T11:21:46;2.90;;;2.25;;
11414;SDS011;5763;42.714;23.244;2023-08-01T11:24:13;2.75;;;2.17;;
11414;SDS011;5763;42.714;23.244;2023-08-01T11:26:41;2.30;;;2.00;;
11414;SDS011;5763;42.714;23.244;2023-08-01T11:29:09;4.75;;;2.53;;
11414;SDS011;5763;42.714;23.244;2023-08-01T11:31:36;2.75;;;2.17;;
11414;SDS011;5763;42.714;23.244;2023-08-01T11:34:03;3.72;;;2.50;;
11414;SDS011;5763;42.714;23.244;2023-08-01T11:36:30;3.17;;;2.13;;
11414;SDS011;5763;42.714;23.244;2023-08-01T11:38:59;3.15;;;2.30;;
11414;SDS011;5763;42.714;23.244;2023-08-01T11:41:26;2.30;;;2.10;;
11414;SDS011;5763;42.714;23.244;2023-08-01T11:43:53;2.35;;;2.15;;
11414;SDS011;5763;42.714;23.244;2023-08-01T11:46:21;2.97;;;2.30;;
11414;SDS011;5763;42.714;23.244;2023-08-01T11:48:48;2.50;;;2.30;;
11414;SDS011;5763;42.714;23.244;2023-08-01T11:51:16;2.90;;;2.20;;
11414;SDS011;5763;42.714;23.244;2023-08-01T11:53:42;2.13;;;1.95;;
11414;SDS011;5763;42.714;23.244;2023-08-01T11:56:20;2.33;;;1.90;;
11414;SDS011;5763;42.714;23.244;2023-08-01T11:58:47;2.47;;;2.00;;
11414;SDS011;5763;42.714;23.244;2023-08-01T12:01:14;2.20;;;2.00;;
11414;SDS011;5763;42.714;23.244;2023-08-01T12:03:42;2.53;;;2.33;;
11414;SDS011;5763;42.714;23.244;2023-08-01T12:06:10;3.10;;;2.00;;
11414;SDS011;5763;42.714;23.244;2023-08-01T12:08:38;2.67;;;2.10;;
11414;SDS011;5763;42.714;23.244;2023-08-01T12:11:06;2.88;;;2.10;;
11414;SDS011;5763;42.714;23.244;2023-08-01T12:13:45;5.55;;;2.17;;
11414;SDS011;5763;42.714;23.244;2023-08-01T12:16:12;2.58;;;2.08;;
11414;SDS011;5763;42.714;23.244;2023-08-01T12:18:40;2.10;;;1.90;;
11414;SDS011;5763;42.714;23.244;2023-08-01T12:21:08;2.15;;;1.95;;
11414;SDS011;5763;42.714;23.244;2023-08-01T12:23:35;3.10;;;2.08;;
11414;SDS011;5763;42.714;23.244;2023-08-01T12:26:02;2.30;;;2.10;;
11414;SDS011;5763;42.714;23.244;2023-08-01T12:28:29;2.00;;;1.85;;
11414;SDS011;5763;42.714;23.244;2023-08-01T12:30:57;2.17;;;1.90;;
11414;SDS011;5763;42.714;23.244;2023-08-01T12:33:24;2.25;;;1.90;;
11414;SDS011;5763;42.714;23.244;2023-08-01T12:35:50;2.22;;;2.03;;
11414;SDS011;5763;42.714;23.244;2023-08-01T12:38:17;3.85;;;2.05;;
11414;SDS011;5763;42.714;23.244;2023-08-01T12:40:44;2.35;;;2.10;;
11414;SDS011;5763;42.714;23.244;2023-08-01T12:43:12;2.53;;;2.10;;
11414;SDS011;5763;42.714;23.244;2023-08-01T12:45:38;2.40;;;2.20;;
11414;SDS011;5763;42.714;23.244;2023-08-01T12:48:06;2.63;;;1.83;;
11414;SDS011;5763;42.714;23.244;2023-08-01T12:50:34;2.75;;;1.80;;
11414;SDS011;5763;42.714;23.244;2023-08-01T12:53:00;4.47;;;2.05;;
11414;SDS011;5763;42.714;23.244;2023-08-01T12:55:27;1.90;;;1.80;;
11414;SDS011;5763;42.714;23.244;2023-08-01T12:57:54;3.67;;;2.10;;
11414;SDS011;5763;42.714;23.244;2023-08-01T13:00:21;3.17;;;2.00;;
11414;SDS011;5763;42.714;23.244;2023-08-01T13:02:48;2.25;;;2.05;;
11414;SDS011;5763;42.714;23.244;2023-08-01T13:05:17;2.22;;;1.80;;
11414;SDS011;5763;42.714;23.244;2023-08-01T13:07:44;3.80;;;2.20;;
11414;SDS011;5763;42.714;23.244;2023-08-01T13:10:10;3.28;;;1.85;;
11414;SDS011;5763;42.714;23.244;2023-08-01T13:12:37;2.78;;;2.05;;
11414;SDS011;5763;42.714;23.244;2023-08-01T13:15:04;4.20;;;2.28;;
11414;SDS011;5763;42.714;23.244;2023-08-01T13:17:32;2.10;;;1.80;;
11414;SDS011;5763;42.714;23.244;2023-08-01T13:19:59;3.08;;;2.10;;
11414;SDS011;5763;42.714;23.244;2023-08-01T13:22:27;3.35;;;2.20;;
11414;SDS011;5763;42.714;23.244;2023-08-01T13:24:54;3.60;;;2.30;;
11414;SDS011;5763;42.714;23.244;2023-08-01T13:27:20;2.47;;;1.92;;
11414;SDS011;5763;42.714;23.244;2023-08-01T13:29:47;3.63;;;1.90;;
11414;SDS011;5763;42.714;23.244;2023-08-01T13:32:17;5.53;;;2.28;;
11414;SDS011;5763;42.714;23.244;2023-08-01T13:34:43;2.35;;;2.15;;
11414;SDS011;5763;42.714;23.244;2023-08-01T13:37:11;2.08;;;1.88;;
11414;SDS011;5763;42.714;23.244;2023-08-01T13:39:39;4.00;;;2.38;;
11414;SDS011;5763;42.714;23.244;2023-08-01T13:42:06;3.05;;;2.22;;
11414;SDS011;5763;42.714;23.244;2023-08-01T13:44:33;3.25;;;2.20;;
11414;SDS011;5763;42.714;23.244;2023-08-01T13:47:00;2.38;;;1.98;;
11414;SDS011;5763;42.714;23.244;2023-08-01T13:49:28;3.45;;;2.15;;
11414;SDS011;5763;42.714;23.244;2023-08-01T13:51:55;3.20;;;2.03;;
11414;SDS011;5763;42.714;23.244;2023-08-01T13:54:22;2.50;;;2.30;;
11414;SDS011;5763;42.714;23.244;2023-08-01T13:56:50;2.22;;;2.03;;
11414;SDS011;5763;42.714;23.244;2023-08-01T13:59:18;2.78;;;2.15;;
11414;SDS011;5763;42.714;23.244;2023-08-01T14:01:45;3.75;;;2.20;;
11414;SDS011;5763;42.714;23.244;2023-08-01T14:04:12;2.58;;;2.38;;
11414;SDS011;5763;42.714;23.244;2023-08-01T14:06:39;3.47;;;2.42;;
11414;SDS011;5763;42.714;23.244;2023-08-01T14:09:06;3.42;;;2.35;;
11414;SDS011;5763;42.714;23.244;2023-08-01T14:11:34;2.10;;;1.90;;
11414;SDS011;5763;42.714;23.244;2023-08-01T14:14:02;2.58;;;2.20;;
11414;SDS011;5763;42.714;23.244;2023-08-01T14:16:29;1.90;;;1.75;;
11414;SDS011;5763;42.714;23.244;2023-08-01T14:18:56;2.25;;;2.05;;
11414;SDS011;5763;42.714;23.244;2023-08-01T14:21:23;2.50;;;2.30;;
11414;SDS011;5763;42.714;23.244;2023-08-01T14:23:50;2.22;;;2.03;;
11414;SDS011;5763;42.714;23.244;2023-08-01T14:26:17;3.50;;;2.40;;
11414;SDS011;5763;42.714;23.244;2023-08-01T14:28:43;3.05;;;2.20;;
11414;SDS011;5763;42.714;23.244;2023-08-01T14:31:12;2.85;;;2.40;;
11414;SDS011;5763;42.714;23.244;2023-08-01T14:33:39;2.30;;;2.10;;
11414;SDS011;5763;42.714;23.244;2023-08-01T14:36:07;2.10;;;1.95;;
11414;SDS011;5763;42.714;23.244;2023-08-01T14:38:34;2.38;;;2.17;;
11414;SDS011;5763;42.714;23.244;2023-08-01T14:41:01;2.38;;;2.17;;
11414;SDS011;5763;42.714;23.244;2023-08-01T14:43:28;2.92;;;2.60;;
11414;SDS011;5763;42.714;23.244;2023-08-01T14:45:55;3.92;;;2.20;;
11414;SDS011;5763;42.714;23.244;2023-08-01T14:48:23;4.65;;;2.55;;